Latest Weather Observations for Pound Creek

IDV60801

Issued at 6:02 pm EST Wednesday 5 August 2015 (issued every 30 minutes, with the page automatically refreshed every 10 minutes)

About weather observations | Map of weather stations | Latest weather observations for VIC | Other Formats
Station Details ID: 085099 Name: POUND CREEK Lat: -38.63 Lon: 145.81 Height: 3.0 m
Data from the previous 72 hours. | See also: Recent months at Pound Creek
Date/Time
EST
Temp
°C
App
Temp
°C
Dew
Point
Rel
Hum
%
Delta-T
°C
Wind Press
QNH
hPa
Press
MSL
hPa
Rain
since 9 am
mm
Dir
 
Spd
km/h
Gust
km/h
Spd
kts
Gust
kts
05/06:00pm 8.3 2.4 3.9 74 1.9 W 24 32 13 17 1012.7 1012.7 0.4
05/05:30pm 7.7 3.2 4.1 78 1.6 WNW 17 24 9 13 1012.4 1012.4 0.4
05/05:00pm 8.2 3.0 3.5 72 2.0 W 20 35 11 19 1012.1 1012.1 0.4
05/04:30pm 8.7 1.1 3.7 71 2.2 WSW 33 44 18 24 1012.1 1012.1 0.4
05/04:07pm 8.9 2.3 4.1 72 2.1 WSW 28 50 15 27 1012.0 1012.0 0.4
05/04:00pm 9.1 2.8 3.9 70 2.3 WSW 26 37 14 20 1011.9 1011.9 0.4
05/03:30pm 9.0 3.1 3.8 70 2.3 WSW 24 33 13 18 1011.8 1011.8 0.2
05/03:00pm 9.2 2.6 4.0 70 2.3 SW 28 44 15 24 1011.7 1011.7 0.2
05/02:30pm 8.9 1.2 2.5 64 2.7 WSW 32 56 17 30 1011.2 1011.2 0.2
05/02:00pm 8.8 2.2 4.0 72 2.1 WSW 28 50 15 27 1011.2 1011.2 0.2
05/01:51pm 9.2 2.5 3.8 69 2.4 WSW 28 50 15 27 1011.2 1011.2 0.2
05/01:30pm 8.2 1.9 3.9 74 1.9 WSW 26 43 14 23 1011.2 1011.2 0.2
05/01:00pm 9.6 3.0 4.4 70 2.3 WSW 28 39 15 21 1011.1 1011.1 0.2
05/12:30pm 10.1 3.8 3.6 64 2.8 WSW 26 39 14 21 1011.3 1011.3 0.2
05/12:00pm 9.5 2.6 2.6 62 2.9 WSW 28 37 15 20 1011.6 1011.6 0.2
05/11:30am 9.3 3.4 4.1 70 2.3 SW 24 39 13 21 1011.9 1011.9 0.2
05/11:00am 9.3 1.8 3.3 66 2.6 WSW 32 43 17 23 1011.7 1011.7 0.2
05/10:30am 9.4 2.7 3.6 67 2.5 SW 28 37 15 20 1011.5 1011.5 0.2
05/10:00am 9.1 5.0 6.2 82 1.3 SW 17 32 9 17 1011.2 1011.2 0.2
05/09:30am 7.3 0.0 4.4 82 1.3 SW 32 46 17 25 1011.1 1011.1 0.2
05/09:00am 8.8 3.6 5.7 81 1.4 WSW 22 32 12 17 1010.7 1010.7 9.6
05/08:30am 8.2 3.1 5.8 85 1.1 SW 22 30 12 16 1010.7 1010.7 9.6
05/08:00am 8.7 2.7 5.4 80 1.5 SW 26 37 14 20 1010.1 1010.1 9.6
05/07:30am 8.8 1.7 5.4 79 1.5 SW 32 39 17 21 1010.0 1010.0 9.6
05/07:00am 8.9 1.7 5.1 77 1.7 WSW 32 46 17 25 1009.4 1009.4 9.6
05/06:30am 7.8 -0.6 5.6 86 1.0 WSW 39 59 21 32 1009.3 1009.3 9.4
05/06:22am 9.4 2.4 5.8 78 1.6 WSW 32 52 17 28 1009.0 1009.0 9.0
05/06:00am 8.9 1.7 5.8 81 1.4 WSW 33 50 18 27 1008.6 1008.6 9.0
05/05:53am 8.6 1.5 6.4 86 1.0 WSW 33 54 18 29 1008.7 1008.7 9.0
05/05:30am 9.2 2.3 6.5 83 1.3 WSW 32 41 17 22 1008.4 1008.4 8.6
05/05:16am 8.5 2.9 7.3 92 0.6 WSW 26 43 14 23 1008.4 1008.4 8.6
05/05:00am 7.9 5.1 7.0 94 0.4 WNW 11 24 6 13 1008.2 1008.2 8.6
05/04:30am 7.8 3.3 6.9 94 0.4 WNW 20 30 11 16 1008.3 1008.3 8.6
05/04:00am 7.8 0.9 6.6 92 0.6 W 32 44 17 24 1008.3 1008.3 7.0
05/03:30am 8.4 1.7 7.2 92 0.6 WNW 32 50 17 27 1008.0 1008.0 3.4
05/03:04am 8.9 2.9 7.2 89 0.8 WNW 28 48 15 26 1008.1 1008.1 1.8
05/03:00am 9.0 3.8 7.1 88 0.9 WNW 24 39 13 21 1008.1 1008.1 1.4
05/02:30am 9.5 4.2 6.6 82 1.4 WNW 24 44 13 24 1008.3 1008.3 0.0
05/02:00am 9.4 4.0 6.5 82 1.3 NW 24 43 13 23 1008.7 1008.7 0.0
05/01:30am 9.2 4.2 6.6 84 1.2 NW 22 37 12 20 1009.1 1009.1 0.0
05/01:00am 8.9 3.4 5.8 81 1.4 NW 24 43 13 23 1009.4 1009.4 0.0
05/12:30am 9.1 3.6 5.8 80 1.5 NW 24 44 13 24 1009.9 1009.9 0.0
05/12:00am 8.6 2.7 5.9 83 1.2 NW 26 43 14 23 1010.4 1010.4 0.0
 
Date/Time
EST
Temp
°C
App
Temp
°C
Dew
Point
Rel
Hum
%
Delta-T
°C
Wind Press
QNH
hPa
Press
MSL
hPa
Rain
since 9 am
mm
Dir
 
Spd
km/h
Gust
km/h
Spd
kts
Gust
kts
04/11:30pm 8.9 2.9 5.3 78 1.6 NW 26 43 14 23 1010.8 1010.8 0.0
04/11:00pm 8.8 2.8 5.4 79 1.5 NW 26 43 14 23 1011.2 1011.2 0.0
04/10:31pm 9.0 2.6 5.0 76 1.8 NW 28 50 15 27 1011.4 1011.4 0.0
04/10:30pm 9.0 2.9 5.0 76 1.8 NW 26 50 14 27 1011.4 1011.4 0.0
04/10:00pm 8.5 2.1 5.1 79 1.5 NW 28 46 15 25 1012.0 1012.0 0.0
04/09:47pm 8.5 2.1 5.1 79 1.5 NW 28 52 15 28 1012.3 1012.3 0.0
04/09:30pm 8.7 2.2 4.9 77 1.7 NW 28 43 15 23 1012.7 1012.7 0.0
04/09:00pm 7.9 2.3 5.2 83 1.2 NW 24 43 13 23 1013.2 1013.2 0.0
04/08:30pm 8.0 2.0 5.1 82 1.3 NW 26 43 14 23 1013.4 1013.4 0.0
04/08:00pm 8.6 2.3 3.8 72 2.1 NNW 26 46 14 25 1013.7 1013.7 0.0
04/07:31pm 8.7 2.0 3.9 72 2.1 NNW 28 57 15 31 1013.9 1013.9 0.0
04/07:30pm 8.7 2.0 3.7 71 2.2 NNW 28 44 15 24 1014.0 1014.0 0.0
04/07:00pm 8.9 3.7 3.5 69 2.3 NNW 20 43 11 23 1014.4 1014.4 0.0
04/06:30pm 9.5 4.0 3.9 68 2.5 NNW 22 39 12 21 1014.6 1014.6 0.0
04/06:00pm 9.3 4.4 4.1 70 2.3 NNW 19 35 10 19 1014.9 1014.9 0.0
04/05:30pm 9.1 4.6 4.3 72 2.1 NW 17 28 9 15 1015.3 1015.3 0.0
04/05:00pm 9.3 4.4 4.1 70 2.3 NW 19 32 10 17 1015.3 1015.3 0.0
04/04:30pm 9.6 5.2 4.6 71 2.2 NW 17 33 9 18 1015.8 1015.8 0.0
04/04:00pm 9.8 4.8 4.4 69 2.4 NW 20 37 11 20 1016.2 1016.2 0.0
04/03:30pm 9.9 4.4 4.1 67 2.6 NW 22 44 12 24 1016.6 1016.6 0.0
04/03:00pm 9.8 5.0 4.8 71 2.2 NW 19 33 10 18 1017.1 1017.1 0.0
04/02:30pm 9.7 4.8 4.3 69 2.4 WNW 19 30 10 16 1017.6 1017.6 0.0
04/02:00pm 9.4 3.1 4.0 69 2.4 WNW 26 41 14 22 1018.1 1018.1 0.0
04/01:30pm 10.5 5.8 5.1 69 2.5 WNW 19 37 10 20 1018.4 1018.4 0.0
04/01:00pm 9.6 4.2 4.4 70 2.3 WNW 22 37 12 20 1018.9 1018.9 0.0
04/12:30pm 10.0 4.6 4.6 69 2.4 NW 22 37 12 20 1019.5 1019.5 0.0
04/12:00pm 10.0 5.0 4.8 70 2.3 NW 20 35 11 19 1020.2 1020.2 0.0
04/11:30am 9.8 4.2 5.2 73 2.1 WNW 24 39 13 21 1020.5 1020.5 0.0
04/11:00am 9.1 4.3 4.7 74 1.9 NW 19 30 10 16 1021.0 1021.0 0.0
04/10:30am 8.8 4.1 5.2 78 1.6 NW 19 32 10 17 1021.5 1021.5 0.0
04/10:00am 8.0 3.2 4.9 81 1.4 NW 19 32 10 17 1021.6 1021.6 0.0
04/09:30am 7.3 3.7 5.1 86 1.0 NNW 13 20 7 11 1021.7 1021.7 0.0
04/09:00am 6.7 2.7 5.0 89 0.7 NW 15 26 8 14 1021.8 1021.8 2.8
04/08:30am 5.7 1.6 4.5 92 0.5 NW 15 22 8 12 1022.0 1022.0 2.8
04/08:00am 5.4 1.7 4.4 93 0.4 NNW 13 24 7 13 1022.0 1022.0 2.8
04/07:30am 5.2 1.5 4.3 94 0.4 NNW 13 20 7 11 1022.0 1022.0 2.6
04/07:00am 5.3 2.0 4.4 94 0.4 NNW 11 20 6 11 1022.0 1022.0 2.4
04/06:30am 5.4 2.5 4.5 94 0.4 NW 9 15 5 8 1022.1 1022.1 2.2
04/06:00am 5.2 1.9 4.5 95 0.3 NNW 11 19 6 10 1021.5 1021.5 1.8
04/05:30am 4.7 1.6 3.8 94 0.4 NNW 9 13 5 7 1021.7 1021.7 1.6
04/05:00am 4.8 1.4 3.9 94 0.4 NNW 11 19 6 10 1021.5 1021.5 1.6
04/04:30am 5.3 1.6 4.3 93 0.4 NW 13 20 7 11 1021.8 1021.8 1.4
04/04:00am 5.2 2.1 3.7 90 0.6 NNW 9 15 5 8 1021.6 1021.6 1.0
04/03:30am 5.2 2.2 3.9 91 0.5 NNW 9 13 5 7 1021.7 1021.7 1.0
04/03:00am 5.5 2.1 4.0 90 0.6 NNW 11 17 6 9 1022.0 1022.0 1.0
04/02:30am 5.4 2.8 4.1 91 0.5 NW 7 15 4 8 1022.0 1022.0 1.0
04/02:00am 4.7 1.9 3.2 90 0.6 N 7 11 4 6 1022.0 1022.0 1.0
04/01:30am 5.1 2.3 3.1 87 0.8 NW 7 13 4 7 1022.2 1022.2 1.0
04/01:00am 4.5 0.8 2.5 87 0.8 NNW 11 17 6 9 1022.1 1022.1 0.8
04/12:30am 4.6 0.7 1.3 79 1.3 NNW 11 15 6 8 1022.2 1022.2 0.8
04/12:00am 4.5 1.1 2.0 84 1.0 NNW 9 13 5 7 1022.3 1022.3 0.8
 
Date/Time
EST
Temp
°C
App
Temp
°C
Dew
Point
Rel
Hum
%
Delta-T
°C
Wind Press
QNH
hPa
Press
MSL
hPa
Rain
since 9 am
mm
Dir
 
Spd
km/h
Gust
km/h
Spd
kts
Gust
kts
03/11:30pm 3.7 0.2 1.4 85 0.9 NNW 9 11 5 6 1022.3 1022.3 0.8
03/11:00pm 4.1 0.2 1.1 81 1.2 N 11 13 6 7 1022.3 1022.3 0.8
03/10:30pm 4.5 0.5 0.8 77 1.4 N 11 17 6 9 1022.5 1022.5 0.8
03/10:00pm 4.7 1.1 0.8 76 1.5 NW 9 15 5 8 1022.5 1022.5 0.8
03/09:30pm 5.7 1.6 0.1 67 2.2 W 11 17 6 9 1022.4 1022.4 0.8
03/09:00pm 6.5 3.5 2.0 73 1.8 SW 7 11 4 6 1022.3 1022.3 0.8
03/08:30pm 7.4 1.2 1.9 68 2.2 SSW 24 30 13 16 1022.2 1022.2 0.8
03/08:00pm 7.2 1.6 1.5 67 2.3 SW 20 30 11 16 1022.0 1022.0 0.8
03/07:30pm 7.5 1.6 1.8 67 2.3 SW 22 30 12 16 1021.8 1021.8 0.8
03/07:00pm 7.5 1.3 2.4 70 2.1 SW 24 32 13 17 1021.5 1021.5 0.8
03/06:30pm 7.1 0.8 1.4 67 2.3 SW 24 33 13 18 1021.2 1021.2 0.8
03/06:00pm 7.2 1.6 3.4 77 1.6 SW 22 30 12 16 1020.9 1020.9 0.8
03/05:30pm 7.0 1.9 2.9 75 1.7 W 19 28 10 15 1020.3 1020.3 0.8
03/05:00pm 6.4 -1.4 3.0 79 1.4 WSW 33 57 18 31 1020.1 1020.1 0.8
03/04:50pm 6.5 -1.1 3.7 82 1.2 WSW 33 56 18 30 1020.2 1020.2 0.6
03/04:30pm 6.5 -0.3 2.9 78 1.5 SSW 28 39 15 21 1020.0 1020.0 0.4
03/04:00pm 7.1 0.4 3.5 78 1.5 SSW 28 37 15 20 1019.5 1019.5 0.4
03/03:49pm 8.3 1.7 4.1 75 1.8 WSW 28 48 15 26 1019.4 1019.4 0.4
03/03:30pm 6.7 -1.5 2.6 75 1.7 WSW 35 57 19 31 1019.3 1019.3 0.4
03/03:18pm 8.4 0.7 2.2 65 2.6 SW 32 54 17 29 1018.9 1018.9 0.4
03/03:00pm 9.4 1.7 2.3 61 3.0 SW 32 44 17 24 1018.5 1018.5 0.4
03/02:30pm 8.9 1.2 3.3 68 2.4 SW 33 46 18 25 1018.0 1018.0 0.4
03/02:16pm 8.7 0.6 3.1 68 2.4 SW 35 54 19 29 1018.0 1018.0 0.4
03/02:00pm 8.9 -0.2 1.8 61 2.9 WSW 39 50 21 27 1017.7 1017.7 0.4
03/01:30pm 9.3 0.2 1.7 59 3.2 WSW 39 52 21 28 1017.6 1017.6 0.4
03/01:10pm 8.5 1.0 3.4 70 2.2 WSW 32 56 17 30 1017.5 1017.5 0.4
03/01:00pm 7.8 0.1 3.5 74 1.8 WSW 33 43 18 23 1017.6 1017.6 0.2
03/12:30pm 7.1 -1.0 3.2 76 1.6 SW 35 52 19 28 1017.5 1017.5 0.2
03/12:25pm 7.6 -0.3 2.1 68 2.3 SW 33 52 18 28 1017.4 1017.4 0.2
03/12:00pm 8.3 1.9 3.4 71 2.1 WSW 26 41 14 22 1017.3 1017.3 0.0
03/11:30am 8.2 -0.3 0.9 60 2.9 WSW 35 48 19 26 1016.9 1016.9 0.0
03/11:00am 7.8 -1.0 1.6 65 2.5 WSW 37 50 20 27 1016.8 1016.8 0.0
03/10:30am 7.5 -1.5 2.6 71 2.0 WSW 39 54 21 29 1016.3 1016.3 0.0
03/10:00am 8.7 0.2 2.9 67 2.5 WSW 37 52 20 28 1015.6 1015.6 0.0
03/09:30am 7.7 -3.3 2.8 71 2.1 WSW 50 78 27 42 1014.9 1014.9 0.0
03/09:00am 7.2 -2.7 2.5 72 1.9 WSW 44 65 24 35 1014.7 1014.7 14.2
03/08:30am 6.8 -2.0 3.4 79 1.4 WSW 39 67 21 36 1014.1 1014.1 14.2
03/08:08am 5.9 -5.5 3.1 82 1.2 WSW 52 80 28 43 1013.4 1013.4 14.0
03/08:00am 6.4 -2.3 3.9 84 1.1 WSW 39 57 21 31 1013.1 1013.1 14.0
03/07:35am 7.8 -1.8 3.3 73 1.9 WSW 43 63 23 34 1012.1 1012.1 13.0
03/07:30am 7.9 -1.3 3.6 74 1.8 WSW 41 56 22 30 1012.0 1012.0 13.0
03/07:00am 6.4 -4.4 4.2 86 0.9 WSW 50 72 27 39 1011.5 1011.5 13.0
03/06:30am 6.9 -3.8 4.4 84 1.1 WSW 50 80 27 43 1010.9 1010.9 12.8
03/06:22am 7.6 -1.8 4.2 79 1.5 W 43 82 23 44 1010.7 1010.7 12.8
03/06:20am 8.3 -0.4 4.1 75 1.8 W 39 82 21 44 1010.3 1010.3 12.6
03/06:04am 7.3 0.1 4.8 84 1.1 W 32 50 17 27 1010.0 1010.0 12.6
03/06:00am 7.2 -0.2 4.9 85 1.0 W 33 48 18 26 1009.9 1009.9 12.6
03/05:30am 8.3 -1.0 4.9 79 1.5 WSW 43 63 23 34 1009.5 1009.5 12.0
03/05:21am 8.1 -0.3 5.4 83 1.2 WSW 39 61 21 33 1009.5 1009.5 12.0
03/05:18am 8.2 1.0 5.7 84 1.1 W 33 48 18 26 1009.5 1009.5 12.0
03/05:00am 7.7 -0.2 4.5 80 1.4 W 35 50 19 27 1009.1 1009.1 12.0
03/04:46am 8.5 -0.9 4.7 77 1.7 W 43 74 23 40 1009.0 1009.0 12.0
03/04:30am 7.8 0.1 5.3 84 1.1 W 35 54 19 29 1008.9 1008.9 12.0
03/04:06am 7.2 -0.4 6.0 92 0.5 W 35 54 19 29 1009.0 1009.0 11.6
03/04:00am 7.3 -0.3 5.9 91 0.6 W 35 50 19 27 1008.7 1008.7 11.4
03/03:30am 8.0 1.5 6.6 91 0.6 WNW 30 48 16 26 1008.7 1008.7 10.4
03/03:00am 8.3 1.4 6.6 89 0.8 WNW 32 54 17 29 1008.6 1008.6 8.8
03/02:30am 8.7 2.5 6.0 83 1.2 WNW 28 50 15 27 1007.9 1007.9 7.6
03/02:01am 9.4 2.7 5.4 76 1.8 NW 30 48 16 26 1007.7 1007.7 7.4
03/02:00am 9.4 2.3 5.4 76 1.8 NW 32 48 17 26 1007.7 1007.7 7.4
03/01:37am 9.5 3.1 5.3 75 1.9 NW 28 54 15 29 1007.7 1007.7 7.4
03/01:30am 9.4 3.4 5.2 75 1.9 WNW 26 56 14 30 1007.7 1007.7 7.4
03/01:00am 9.5 2.7 5.3 75 1.9 NW 30 56 16 30 1007.9 1007.9 7.4
03/12:30am 9.1 2.3 5.1 76 1.8 NW 30 63 16 34 1008.2 1008.2 7.4
03/12:00am 9.3 2.6 5.5 77 1.7 NW 30 50 16 27 1008.4 1008.4 7.4
 
Date/Time
EST
Temp
°C
App
Temp
°C
Dew
Point
Rel
Hum
%
Delta-T
°C
Wind Press
QNH
hPa
Press
MSL
hPa
Rain
since 9 am
mm
Dir
 
Spd
km/h
Gust
km/h
Spd
kts
Gust
kts
02/11:50pm 9.4 3.1 5.8 78 1.6 NW 28 54 15 29 1008.6 1008.6 7.4
02/11:30pm 9.1 3.2 5.7 79 1.5 NW 26 46 14 25 1008.5 1008.5 7.4
02/11:00pm 8.9 3.3 5.6 80 1.5 NW 24 48 13 26 1008.7 1008.7 7.4
02/10:30pm 9.1 4.3 5.7 79 1.5 WNW 20 37 11 20 1009.1 1009.1 7.4
02/10:00pm 9.3 3.8 5.7 78 1.6 NW 24 52 13 28 1009.0 1009.0 7.4
02/09:30pm 9.3 4.2 6.2 81 1.4 NW 22 43 12 23 1009.1 1009.1 7.4
02/09:00pm 9.4 4.8 6.5 82 1.3 NW 20 44 11 24 1009.4 1009.4 7.4
02/08:30pm 9.3 4.7 6.7 84 1.2 WNW 20 35 11 19 1009.2 1009.2 7.4
02/08:00pm 9.1 4.7 7.2 88 0.9 NW 20 37 11 20 1009.0 1009.0 7.4
02/07:30pm 9.0 5.3 7.8 92 0.6 NW 17 26 9 14 1009.1 1009.1 7.2
02/07:00pm 8.8 5.4 7.7 93 0.5 WNW 15 30 8 16 1008.9 1008.9 7.2
02/06:30pm 8.5 3.0 7.6 94 0.4 WNW 26 43 14 23 1008.9 1008.9 7.0

Other Formats:

Comma delimited format used in spreadsheet applications
http://www.bom.gov.au/fwo/IDV60801/IDV60801.94886.axf

JavaScript Object Notation format (JSON) in row-major order
http://www.bom.gov.au/fwo/IDV60801/IDV60801.94886.json